createdAt,value
2019-01-04T00:00:24.040Z,22.27
2019-01-04T00:02:51.275Z,22.17
2019-01-04T00:05:18.512Z,23.90
2019-01-04T00:07:45.873Z,24.07
2019-01-04T00:13:04.905Z,20.30
2019-01-04T00:15:32.182Z,22.83
2019-01-04T00:17:59.428Z,21.40
2019-01-04T00:20:26.672Z,20.70
2019-01-04T00:22:53.983Z,20.97
2019-01-04T00:25:21.267Z,22.27
2019-01-04T00:27:48.543Z,20.57
2019-01-04T00:30:15.821Z,21.53
2019-01-04T00:32:43.070Z,21.40
2019-01-04T00:35:10.359Z,21.80
2019-01-04T00:37:37.598Z,21.30
2019-01-04T00:40:05.317Z,24.63
2019-01-04T00:42:32.571Z,21.57
2019-01-04T00:44:59.820Z,21.33
2019-01-04T00:47:27.163Z,21.20
2019-01-04T00:49:54.435Z,25.17
2019-01-04T00:52:41.215Z,38.10
2019-01-04T00:55:25.767Z,32.77
2019-01-04T00:58:17.206Z,46.90
2019-01-04T01:01:33.075Z,33.87
2019-01-04T01:04:44.544Z,34.87
2019-01-04T01:07:30.690Z,36.43
2019-01-04T01:10:25.796Z,29.77
2019-01-04T01:13:32.467Z,60.77
2019-01-04T01:16:50.586Z,55.30
2019-01-04T01:19:59.378Z,42.43
2019-01-04T01:23:03.160Z,33.67
2019-01-04T01:26:11.991Z,44.97
2019-01-04T01:29:21.707Z,46.07
2019-01-04T01:31:54.622Z,46.03
2019-01-04T01:35:02.332Z,39.20
2019-01-04T01:38:07.556Z,43.00
2019-01-04T01:40:55.278Z,40.27
2019-01-04T01:44:07.367Z,25.60
2019-01-04T01:47:02.503Z,27.47
2019-01-04T01:50:14.812Z,24.37
2019-01-04T01:52:45.440Z,21.20
2019-01-04T01:55:12.696Z,24.73
2019-01-04T01:57:40.033Z,24.27
2019-01-04T02:00:07.399Z,24.67
2019-01-04T02:02:34.646Z,25.77
2019-01-04T02:05:01.899Z,26.23
2019-01-04T02:07:29.136Z,23.00
2019-01-04T02:09:56.397Z,24.60
2019-01-04T02:12:23.707Z,23.50
2019-01-04T02:14:50.951Z,22.60
2019-01-04T02:17:18.183Z,21.33
2019-01-04T02:19:45.538Z,22.63
2019-01-04T02:22:12.875Z,23.93
2019-01-04T02:24:40.235Z,25.53
2019-01-04T02:27:07.484Z,27.50
2019-01-04T02:29:34.719Z,25.13
2019-01-04T02:32:01.966Z,29.23
2019-01-04T02:34:29.207Z,28.07
2019-01-04T02:36:56.437Z,28.87
2019-01-04T02:39:23.721Z,29.40
2019-01-04T02:41:50.980Z,35.90
2019-01-04T02:44:18.234Z,25.77
2019-01-04T02:46:45.523Z,21.07
2019-01-04T02:49:12.815Z,27.00
2019-01-04T02:51:40.395Z,49.90
2019-01-04T02:54:07.714Z,27.77
2019-01-04T02:56:35.118Z,26.87
2019-01-04T02:59:02.457Z,27.77
2019-01-04T03:01:29.713Z,24.90
2019-01-04T03:03:56.977Z,22.17
2019-01-04T03:06:24.236Z,24.80
2019-01-04T03:08:51.487Z,25.00
2019-01-04T03:11:18.731Z,23.80
2019-01-04T03:13:45.946Z,22.73
2019-01-04T03:16:13.187Z,25.10
2019-01-04T03:18:40.457Z,23.00
2019-01-04T03:21:07.695Z,24.33
2019-01-04T03:23:34.948Z,22.37
2019-01-04T03:26:02.206Z,22.33
2019-01-04T03:28:29.553Z,21.93
2019-01-04T03:30:56.807Z,38.93
2019-01-04T03:33:24.028Z,44.80
2019-01-04T03:35:51.249Z,32.07
2019-01-04T03:38:18.505Z,26.20
2019-01-04T03:40:45.756Z,26.33
2019-01-04T03:43:12.987Z,24.13
2019-01-04T03:45:40.253Z,27.13
2019-01-04T03:48:07.481Z,25.80
2019-01-04T03:50:34.903Z,23.00
2019-01-04T03:53:02.168Z,22.90
2019-01-04T03:55:29.403Z,22.27
2019-01-04T03:57:56.684Z,21.80
2019-01-04T04:00:23.942Z,21.07
2019-01-04T04:02:51.161Z,21.57
2019-01-04T04:05:18.405Z,21.87
2019-01-04T04:07:45.655Z,23.60
2019-01-04T04:10:12.894Z,24.23
2019-01-04T04:12:40.124Z,22.07
2019-01-04T04:15:07.375Z,20.97
2019-01-04T04:17:34.605Z,21.57
2019-01-04T04:20:01.849Z,19.90
2019-01-04T04:22:29.201Z,19.60
2019-01-04T04:24:56.507Z,27.97
2019-01-04T04:27:23.795Z,24.20
2019-01-04T04:29:51.066Z,30.07
2019-01-04T04:32:18.291Z,31.50
2019-01-04T04:34:47.094Z,25.43
2019-01-04T04:37:17.178Z,24.70
2019-01-04T04:39:44.416Z,22.40
2019-01-04T04:42:11.643Z,23.50
2019-01-04T04:44:38.887Z,21.33
2019-01-04T04:47:06.139Z,20.90
2019-01-04T04:49:33.795Z,19.63
2019-01-04T04:52:01.439Z,20.13
2019-01-04T04:54:29.176Z,18.93
2019-01-04T04:56:56.845Z,19.33
2019-01-04T04:59:24.541Z,19.73
2019-01-04T05:01:52.238Z,19.33
2019-01-04T05:04:19.526Z,17.83
2019-01-04T05:06:46.807Z,17.83
2019-01-04T05:09:14.154Z,17.67
2019-01-04T05:11:41.383Z,17.77
2019-01-04T05:14:08.643Z,18.40
2019-01-04T05:16:35.885Z,19.33
2019-01-04T05:19:03.123Z,19.63
2019-01-04T05:21:30.395Z,18.23
2019-01-04T05:23:57.715Z,20.47
2019-01-04T05:26:24.939Z,19.27
2019-01-04T05:28:52.254Z,19.40
2019-01-04T05:31:19.588Z,19.37
2019-01-04T05:33:46.918Z,19.63
2019-01-04T05:36:14.151Z,19.40
2019-01-04T05:38:41.407Z,19.17
2019-01-04T05:41:08.644Z,19.07
2019-01-04T05:43:35.947Z,20.77
2019-01-04T05:46:03.187Z,20.03
2019-01-04T05:48:30.437Z,18.87
2019-01-04T05:50:57.664Z,18.73
2019-01-04T05:53:24.909Z,18.53
2019-01-04T05:55:52.139Z,17.77
2019-01-04T05:58:19.408Z,19.13
2019-01-04T06:00:46.667Z,20.13
2019-01-04T06:03:13.920Z,20.53
2019-01-04T06:05:41.143Z,19.87
2019-01-04T06:08:08.538Z,18.97
2019-01-04T06:10:35.822Z,20.63
2019-01-04T06:13:03.205Z,21.40
2019-01-04T06:15:30.671Z,19.53
2019-01-04T06:17:58.199Z,18.37
2019-01-04T06:20:25.424Z,19.60
2019-01-04T06:22:52.659Z,19.93
2019-01-04T06:25:19.916Z,19.77
2019-01-04T06:27:47.153Z,20.57
2019-01-04T06:30:14.402Z,22.00
2019-01-04T06:32:41.632Z,22.73
2019-01-04T06:35:09.085Z,19.67
2019-01-04T06:37:36.374Z,20.73
2019-01-04T06:40:05.746Z,21.20
2019-01-04T06:42:32.998Z,22.60
2019-01-04T06:45:00.270Z,22.33
2019-01-04T06:47:27.531Z,21.27
2019-01-04T06:49:54.766Z,22.00
2019-01-04T06:52:22.611Z,22.17
2019-01-04T06:55:38.217Z,22.57
2019-01-04T06:58:05.488Z,20.67
2019-01-04T07:00:32.734Z,20.87
2019-01-04T07:02:59.991Z,23.60
2019-01-04T07:05:27.347Z,21.57
2019-01-04T07:07:54.588Z,21.87
2019-01-04T07:10:21.845Z,21.53
2019-01-04T07:12:49.120Z,20.57
2019-01-04T07:15:16.379Z,21.93
2019-01-04T07:17:43.631Z,20.33
2019-01-04T07:20:10.901Z,20.73
2019-01-04T07:22:38.128Z,20.73
2019-01-04T07:25:05.387Z,19.80
2019-01-04T07:27:32.643Z,20.63
2019-01-04T07:29:59.891Z,19.90
2019-01-04T07:32:27.136Z,18.90
2019-01-04T07:34:54.408Z,19.60
2019-01-04T07:37:21.644Z,18.40
2019-01-04T07:40:08.403Z,19.13
2019-01-04T07:42:35.703Z,19.93
2019-01-04T07:45:03.363Z,19.47
2019-01-04T07:47:30.590Z,21.60
2019-01-04T07:49:57.841Z,19.27
2019-01-04T07:52:25.088Z,40.87
2019-01-04T07:54:52.328Z,50.13
2019-01-04T07:57:19.607Z,37.77
2019-01-04T07:59:46.879Z,35.20
2019-01-04T08:02:40.343Z,33.23
2019-01-04T08:05:10.066Z,25.90
2019-01-04T08:07:37.314Z,26.53
2019-01-04T08:10:05.103Z,26.23
2019-01-04T08:12:32.362Z,28.90
2019-01-04T08:14:59.604Z,28.23
2019-01-04T08:17:26.962Z,26.97
2019-01-04T08:19:54.223Z,23.17
2019-01-04T08:22:21.459Z,21.20
2019-01-04T08:24:48.679Z,21.77
2019-01-04T08:27:15.920Z,22.30
2019-01-04T08:29:43.138Z,21.23
2019-01-04T08:32:10.395Z,21.17
2019-01-04T08:34:37.739Z,21.47
2019-01-04T08:37:04.988Z,20.30
2019-01-04T08:39:32.211Z,20.30
2019-01-04T08:41:59.465Z,19.10
2019-01-04T08:44:26.699Z,20.10
2019-01-04T08:46:53.927Z,19.67
2019-01-04T08:49:21.144Z,19.60
2019-01-04T08:51:48.495Z,21.27
2019-01-04T08:54:15.747Z,19.70
2019-01-04T08:56:42.958Z,21.80
2019-01-04T08:59:10.181Z,20.93
2019-01-04T09:01:37.439Z,24.00
2019-01-04T09:04:04.671Z,21.87
2019-01-04T09:06:31.926Z,82.13
2019-01-04T09:08:59.190Z,78.60
2019-01-04T09:11:26.499Z,58.23
2019-01-04T09:13:53.832Z,72.23
2019-01-04T09:16:21.079Z,73.23
2019-01-04T09:18:48.409Z,61.37
2019-01-04T09:21:15.674Z,93.43
2019-01-04T09:23:43.010Z,68.13
2019-01-04T09:26:10.250Z,63.47
2019-01-04T09:28:37.501Z,38.93
2019-01-04T09:31:04.823Z,29.87
2019-01-04T09:33:32.079Z,32.17
2019-01-04T09:35:59.311Z,27.83
2019-01-04T09:38:26.558Z,26.80
2019-01-04T09:41:26.703Z,26.87
2019-01-04T09:43:53.947Z,26.07
2019-01-04T09:46:21.171Z,23.77
2019-01-04T09:48:48.402Z,27.07
2019-01-04T09:51:15.650Z,32.60
2019-01-04T09:53:42.893Z,24.50
2019-01-04T09:56:10.135Z,25.93
2019-01-04T09:58:37.384Z,23.77
2019-01-04T10:01:04.620Z,23.07
2019-01-04T10:03:31.887Z,24.17
2019-01-04T10:05:59.115Z,22.80
2019-01-04T10:08:26.343Z,22.30
2019-01-04T10:10:53.579Z,21.53
2019-01-04T10:13:20.835Z,21.73
2019-01-04T10:15:48.064Z,22.60
2019-01-04T10:18:15.282Z,20.90
2019-01-04T10:20:42.523Z,20.50
2019-01-04T10:23:09.756Z,20.57
2019-01-04T10:25:36.975Z,20.17
2019-01-04T10:28:04.240Z,21.17
2019-01-04T10:30:31.514Z,20.40
2019-01-04T10:33:07.322Z,20.03
2019-01-04T10:35:34.551Z,19.13
2019-01-04T10:38:01.824Z,24.17
2019-01-04T10:40:29.211Z,20.73
2019-01-04T10:42:56.551Z,19.47
2019-01-04T10:45:23.788Z,17.13
2019-01-04T10:47:51.195Z,17.03
2019-01-04T10:50:18.439Z,17.33
2019-01-04T10:52:45.675Z,17.50
2019-01-04T10:55:12.924Z,17.30
2019-01-04T10:57:40.175Z,16.50
2019-01-04T11:00:08.869Z,15.73
2019-01-04T11:02:36.480Z,16.47
2019-01-04T11:05:03.867Z,15.30
2019-01-04T11:07:31.229Z,17.03
2019-01-04T11:09:58.567Z,17.03
2019-01-04T11:12:25.839Z,18.80
2019-01-04T11:14:53.175Z,17.27
2019-01-04T11:17:20.536Z,16.30
2019-01-04T11:19:47.787Z,16.70
2019-01-04T11:22:53.587Z,15.97
2019-01-04T11:25:52.031Z,15.43
2019-01-04T11:28:56.751Z,13.87
2019-01-04T11:31:40.307Z,14.97
2019-01-04T11:34:52.413Z,16.17
2019-01-04T11:38:01.710Z,15.20
2019-01-04T11:41:16.486Z,17.87
2019-01-04T11:44:27.462Z,17.17
2019-01-04T11:47:06.042Z,17.27
2019-01-04T11:50:27.207Z,17.23
2019-01-04T11:52:59.731Z,16.13
2019-01-04T11:55:26.988Z,16.77
2019-01-04T11:57:54.272Z,18.03
2019-01-04T12:00:21.503Z,19.33
2019-01-04T12:02:48.822Z,17.73
2019-01-04T12:05:16.074Z,16.90
2019-01-04T12:07:43.315Z,16.10
2019-01-04T12:10:10.732Z,14.50
2019-01-04T12:12:37.947Z,12.93
2019-01-04T12:15:05.223Z,13.80
2019-01-04T12:17:32.592Z,13.80
2019-01-04T12:19:59.856Z,13.30
2019-01-04T12:22:27.135Z,12.57
2019-01-04T12:24:54.373Z,11.37
2019-01-04T12:27:21.592Z,11.10
2019-01-04T12:29:48.864Z,11.17
2019-01-04T12:32:16.155Z,11.00
2019-01-04T12:34:43.460Z,10.87
2019-01-04T12:37:10.718Z,10.13
2019-01-04T12:39:37.951Z,10.73
2019-01-04T12:42:05.195Z,11.40
2019-01-04T12:44:32.476Z,11.50
2019-01-04T12:46:59.707Z,12.30
2019-01-04T12:49:26.947Z,13.17
2019-01-04T12:51:54.180Z,13.07
2019-01-04T12:54:21.410Z,13.03
2019-01-04T12:56:48.676Z,11.80
2019-01-04T12:59:15.916Z,11.97
2019-01-04T13:01:43.303Z,9.47
2019-01-04T13:04:10.536Z,9.33
2019-01-04T13:06:37.806Z,7.90
2019-01-04T13:09:05.792Z,8.53
2019-01-04T13:11:33.151Z,9.43
2019-01-04T13:14:00.410Z,11.10
2019-01-04T13:16:27.728Z,10.40
2019-01-04T13:18:54.981Z,10.20
2019-01-04T13:21:22.249Z,10.97
2019-01-04T13:23:49.482Z,8.13
2019-01-04T13:26:16.727Z,7.63
2019-01-04T13:28:43.968Z,8.07
2019-01-04T13:31:11.187Z,7.37
2019-01-04T13:33:38.420Z,7.60
2019-01-04T13:36:06.955Z,8.87
2019-01-04T13:38:34.186Z,8.03
2019-01-04T13:41:01.432Z,7.77
2019-01-04T13:43:29.926Z,7.03
2019-01-04T13:45:57.180Z,6.40
2019-01-04T13:48:24.464Z,6.20
2019-01-04T13:50:51.688Z,5.50
2019-01-04T13:53:18.923Z,4.67
2019-01-04T13:55:46.172Z,4.70
2019-01-04T13:58:13.481Z,5.00
2019-01-04T14:00:40.691Z,3.10
2019-01-04T14:03:07.927Z,3.93
2019-01-04T14:05:35.158Z,3.10
2019-01-04T14:08:02.519Z,4.07
2019-01-04T14:10:29.847Z,4.37
2019-01-04T14:12:57.091Z,3.87
2019-01-04T14:15:24.309Z,5.43
2019-01-04T14:17:51.547Z,4.47
2019-01-04T14:20:18.769Z,5.30
2019-01-04T14:22:45.999Z,4.40
2019-01-04T14:25:13.266Z,4.20
2019-01-04T14:27:40.599Z,4.60
2019-01-04T14:30:09.755Z,4.63
2019-01-04T14:32:37.011Z,4.17
2019-01-04T14:35:05.399Z,4.47
2019-01-04T14:37:32.683Z,4.27
2019-01-04T14:39:59.926Z,4.57
2019-01-04T14:42:27.177Z,5.23
2019-01-04T14:44:54.531Z,6.17
2019-01-04T14:47:29.664Z,7.10
2019-01-04T14:49:56.954Z,5.17
2019-01-04T14:52:24.205Z,6.70
2019-01-04T14:54:51.436Z,6.70
2019-01-04T14:57:18.655Z,5.43
2019-01-04T14:59:46.240Z,5.50
2019-01-04T15:02:13.615Z,4.97
2019-01-04T15:04:40.835Z,5.40
2019-01-04T15:07:08.195Z,5.27
2019-01-04T15:09:35.443Z,5.17
2019-01-04T15:12:02.680Z,3.93
2019-01-04T15:14:29.892Z,4.63
2019-01-04T15:16:57.136Z,4.27
2019-01-04T15:19:24.384Z,5.00
2019-01-04T15:21:51.615Z,5.67
2019-01-04T15:24:18.863Z,5.30
2019-01-04T15:26:46.099Z,5.60
2019-01-04T15:29:13.344Z,5.40
2019-01-04T15:31:40.550Z,6.30
2019-01-04T15:34:07.794Z,5.40
2019-01-04T15:36:35.046Z,5.57
2019-01-04T15:39:03.954Z,5.57
2019-01-04T15:41:31.194Z,5.97
2019-01-04T15:43:58.463Z,5.73
2019-01-04T15:46:25.693Z,6.50
2019-01-04T15:48:52.961Z,6.27
2019-01-04T15:51:20.198Z,6.60
2019-01-04T15:53:47.495Z,6.00
2019-01-04T15:56:14.744Z,7.77
2019-01-04T15:58:41.967Z,7.07
2019-01-04T16:01:09.195Z,7.43
2019-01-04T16:03:36.432Z,7.57
2019-01-04T16:06:03.664Z,8.60
2019-01-04T16:08:30.899Z,8.23
2019-01-04T16:10:58.127Z,9.83
2019-01-04T16:13:25.351Z,11.70
2019-01-04T16:15:52.592Z,12.53
2019-01-04T16:18:19.859Z,12.87
2019-01-04T16:20:47.103Z,13.70
2019-01-04T16:23:14.541Z,12.47
2019-01-04T16:25:41.883Z,10.23
2019-01-04T16:28:09.161Z,12.17
2019-01-04T16:30:36.535Z,10.93
2019-01-04T16:33:03.919Z,11.73
2019-01-04T16:35:31.382Z,10.83
2019-01-04T16:37:58.803Z,9.63
2019-01-04T16:40:26.174Z,9.37
2019-01-04T16:42:53.519Z,10.73
2019-01-04T16:45:21.235Z,9.97
2019-01-04T16:47:48.530Z,10.13
2019-01-04T16:50:16.126Z,10.63
2019-01-04T16:52:43.452Z,10.87
2019-01-04T16:55:10.723Z,11.37
2019-01-04T16:57:38.002Z,11.10
2019-01-04T17:00:07.003Z,11.83
2019-01-04T17:02:34.324Z,12.83
2019-01-04T17:05:01.673Z,16.23
2019-01-04T17:07:29.074Z,15.57
2019-01-04T17:09:56.415Z,15.37
2019-01-04T17:12:23.652Z,15.60
2019-01-04T17:14:51.239Z,14.93
2019-01-04T17:17:18.690Z,15.73
2019-01-04T17:19:46.219Z,14.70
2019-01-04T17:22:13.611Z,14.77
2019-01-04T17:24:41.146Z,17.13
2019-01-04T17:27:08.561Z,16.90
2019-01-04T17:29:35.927Z,16.53
2019-01-04T17:32:03.181Z,16.47
2019-01-04T17:34:30.450Z,17.77
2019-01-04T17:36:57.691Z,18.80
2019-01-04T17:39:25.046Z,19.50
2019-01-04T17:41:52.350Z,19.30
2019-01-04T17:44:19.659Z,20.13
2019-01-04T17:46:46.990Z,20.00
2019-01-04T17:49:14.283Z,23.10
2019-01-04T17:51:41.562Z,23.50
2019-01-04T17:54:08.825Z,21.93
2019-01-04T17:56:36.233Z,21.03
2019-01-04T17:59:03.530Z,21.90
2019-01-04T18:01:30.913Z,21.53
2019-01-04T18:03:58.316Z,21.20
2019-01-04T18:06:25.599Z,22.07
2019-01-04T18:08:52.835Z,22.53
2019-01-04T18:11:20.110Z,24.53
2019-01-04T18:13:47.373Z,23.23
2019-01-04T18:16:14.650Z,23.57
2019-01-04T18:18:41.973Z,23.17
2019-01-04T18:21:09.247Z,21.23
2019-01-04T18:23:39.587Z,21.77
2019-01-04T18:26:06.891Z,21.27
2019-01-04T18:28:34.150Z,21.70
2019-01-04T18:31:01.376Z,22.20
2019-01-04T18:33:28.710Z,24.57
2019-01-04T18:35:55.944Z,23.20
2019-01-04T18:38:23.176Z,21.83
2019-01-04T18:40:50.706Z,24.20
2019-01-04T18:43:19.215Z,23.83
2019-01-04T18:45:46.532Z,22.53
2019-01-04T18:48:15.307Z,23.33
2019-01-04T18:50:42.566Z,23.80
2019-01-04T18:53:09.844Z,22.97
2019-01-04T18:55:37.108Z,23.30
2019-01-04T18:58:04.455Z,21.53
2019-01-04T19:00:31.703Z,24.27
2019-01-04T19:02:58.987Z,24.03
2019-01-04T19:05:26.288Z,23.37
2019-01-04T19:07:53.541Z,23.17
2019-01-04T19:10:20.783Z,23.27
2019-01-04T19:12:48.043Z,25.13
2019-01-04T19:15:15.423Z,24.90
2019-01-04T19:17:42.751Z,25.27
2019-01-04T19:20:09.972Z,24.87
2019-01-04T19:22:37.278Z,25.33
2019-01-04T19:25:04.899Z,26.73
2019-01-04T19:27:32.193Z,28.13
2019-01-04T19:29:59.553Z,25.47
2019-01-04T19:32:27.097Z,27.63
2019-01-04T19:34:54.739Z,30.20
2019-01-04T19:37:22.416Z,29.67
2019-01-04T19:39:50.223Z,29.33
2019-01-04T19:42:18.285Z,27.27
2019-01-04T19:44:45.567Z,30.03
2019-01-04T19:47:12.876Z,30.57
2019-01-04T19:49:40.182Z,29.97
2019-01-04T19:52:07.554Z,32.73
2019-01-04T19:54:34.976Z,30.83
2019-01-04T19:57:02.330Z,28.73
2019-01-04T19:59:29.562Z,28.33
2019-01-04T20:01:56.838Z,31.53
2019-01-04T20:04:24.098Z,29.70
2019-01-04T20:07:53.215Z,32.17
2019-01-04T20:11:42.028Z,31.57
2019-01-04T20:15:13.876Z,30.07
2019-01-04T20:18:03.731Z,31.80
2019-01-04T20:20:49.152Z,31.43
2019-01-04T20:23:45.231Z,31.53
2019-01-04T20:26:34.969Z,33.03
2019-01-04T20:29:36.903Z,39.07
2019-01-04T20:32:23.659Z,44.40
2019-01-04T20:35:09.111Z,36.93
2019-01-04T20:38:08.293Z,34.43
2019-01-04T20:41:10.147Z,33.30
2019-01-04T20:43:58.131Z,30.60
2019-01-04T20:46:41.784Z,32.00
2019-01-04T20:49:37.092Z,30.63
2019-01-04T20:52:29.714Z,29.83
2019-01-04T20:55:15.141Z,33.23
2019-01-04T20:58:07.528Z,32.97
2019-01-04T21:01:02.230Z,34.30
2019-01-04T21:03:51.780Z,35.97
2019-01-04T21:06:32.509Z,34.37
2019-01-04T21:09:19.487Z,32.87
2019-01-04T21:12:14.116Z,33.50
2019-01-04T21:15:03.038Z,34.10
2019-01-04T21:17:55.751Z,34.60
2019-01-04T21:20:43.344Z,31.80
2019-01-04T21:23:39.226Z,31.73
2019-01-04T21:26:24.550Z,32.73
2019-01-04T21:29:13.803Z,31.60
2019-01-04T21:31:56.640Z,32.27
2019-01-04T21:34:46.403Z,31.77
2019-01-04T21:37:45.323Z,34.00
2019-01-04T21:40:30.691Z,33.67
2019-01-04T21:43:17.436Z,34.77
2019-01-04T21:46:07.902Z,32.07
2019-01-04T21:48:53.081Z,32.43
2019-01-04T21:51:42.580Z,29.63
2019-01-04T21:54:38.355Z,30.97
2019-01-04T21:57:24.502Z,28.63
2019-01-04T22:00:13.755Z,29.67
2019-01-04T22:03:06.331Z,29.03
2019-01-04T22:05:51.499Z,30.30
2019-01-04T22:08:39.072Z,33.00
2019-01-04T22:11:34.900Z,32.73
2019-01-04T22:14:33.396Z,31.10
2019-01-04T22:17:32.498Z,28.50
2019-01-04T22:20:23.900Z,25.87
2019-01-04T22:23:16.578Z,27.30
2019-01-04T22:26:06.839Z,26.77
2019-01-04T22:28:55.714Z,27.20
2019-01-04T22:31:47.731Z,24.77
2019-01-04T22:34:37.400Z,26.70
2019-01-04T22:37:22.911Z,27.10
2019-01-04T22:40:15.256Z,26.53
2019-01-04T22:43:35.152Z,24.13
2019-01-04T22:46:38.813Z,23.80
2019-01-04T22:49:50.074Z,22.83
2019-01-04T22:52:49.263Z,22.47
2019-01-04T22:55:34.858Z,21.40
2019-01-04T22:58:27.195Z,22.00
2019-01-04T23:01:25.903Z,19.23
2019-01-04T23:04:11.263Z,20.43
2019-01-04T23:06:56.548Z,20.13
2019-01-04T23:09:45.875Z,20.43
2019-01-04T23:12:42.055Z,18.37
2019-01-04T23:15:33.725Z,19.10
2019-01-04T23:18:39.129Z,17.57
2019-01-04T23:22:10.050Z,18.47
2019-01-04T23:25:10.644Z,17.07
2019-01-04T23:27:52.284Z,17.70
2019-01-04T23:30:39.257Z,18.10
2019-01-04T23:33:35.064Z,18.80
2019-01-04T23:36:20.610Z,18.00
2019-01-04T23:39:06.316Z,18.40
2019-01-04T23:42:08.466Z,18.50
2019-01-04T23:44:53.799Z,17.37
2019-01-04T23:47:45.502Z,17.37
2019-01-04T23:50:34.527Z,16.33
2019-01-04T23:53:20.015Z,18.80
2019-01-04T23:56:23.797Z,16.87
2019-01-04T23:59:25.883Z,18.43
